KESC/ESC METAR and TAF weather

Enter ICAO airport designator
Station Type Date Time Source
KESC METAR 2020/09/20 14:56 UTC NOAA

KESC 201456Z AUTO 20007KT 10SM CLR 16/09 A3042 RMK AO2 SLP304 T01610094 53009


Station Type Date Time Source
KESC Decoded METAR 2020/09/20 14:56 UTC NOAA

Escanaba, MI, United States (KESC) 45-45N 087-02W 187M
Sep 20, 2020 - 10:56 AM EDT / 2020.09.20 1456 UTC
Wind: from the SSW (200 degrees) at 8 MPH (7 KT):0
Visibility: 10 mile(s):0
Sky conditions: clear
Temperature: 61.0 F (16.1 C)
Dew Point: 48.9 F (9.4 C)
Relative Humidity: 64%
Pressure (altimeter): 30.42 in. Hg (1030 hPa)
Pressure tendency: 0.03 inches (0.9 hPa) higher than three hours ago
ob: KESC 201456Z AUTO 20007KT 10SM CLR 16/09 A3042 RMK AO2 SLP304 T01610094 53009
cycle: 15

Station Type Date Time Source
KESC TAF UTC NOAA

Error!

Example: see airport list